createdAt,value
2018-08-09T00:00:18.380Z,6.17
2018-08-09T00:02:45.486Z,5.37
2018-08-09T00:05:12.612Z,4.87
2018-08-09T00:07:39.712Z,4.93
2018-08-09T00:10:07.146Z,5.30
2018-08-09T00:12:34.239Z,4.70
2018-08-09T00:15:01.369Z,4.63
2018-08-09T00:17:28.461Z,4.67
2018-08-09T00:19:55.585Z,6.20
2018-08-09T00:22:22.713Z,5.10
2018-08-09T00:24:49.828Z,6.10
2018-08-09T00:27:16.976Z,5.20
2018-08-09T00:29:44.073Z,4.93
2018-08-09T00:32:11.187Z,4.70
2018-08-09T00:34:38.296Z,4.57
2018-08-09T00:37:05.456Z,5.27
2018-08-09T00:39:32.571Z,6.10
2018-08-09T00:41:59.684Z,8.67
2018-08-09T00:44:26.785Z,6.53
2018-08-09T00:46:53.881Z,6.60
2018-08-09T00:49:21.173Z,6.53
2018-08-09T00:51:48.273Z,6.50
2018-08-09T00:54:15.373Z,6.20
2018-08-09T00:56:42.467Z,6.00
2018-08-09T00:59:09.591Z,8.00
2018-08-09T01:01:36.705Z,5.03
2018-08-09T01:04:03.889Z,11.50
2018-08-09T01:06:31.058Z,5.53
2018-08-09T01:09:06.926Z,5.50
2018-08-09T01:11:34.097Z,7.70
2018-08-09T01:14:01.225Z,5.43
2018-08-09T01:16:28.332Z,5.90
2018-08-09T01:18:55.458Z,12.80
2018-08-09T01:21:22.566Z,7.93
2018-08-09T01:23:49.668Z,7.07
2018-08-09T01:26:16.852Z,6.10
2018-08-09T01:28:43.978Z,9.37
2018-08-09T01:31:11.345Z,6.53
2018-08-09T01:33:38.544Z,7.20
2018-08-09T01:36:05.660Z,6.63
2018-08-09T01:38:32.769Z,5.47
2018-08-09T01:40:59.887Z,5.80
2018-08-09T01:43:32.540Z,7.87
2018-08-09T01:45:59.916Z,6.27
2018-08-09T01:48:28.344Z,6.70
2018-08-09T01:50:55.443Z,8.60
2018-08-09T01:53:22.776Z,6.40
2018-08-09T01:55:49.932Z,5.97
2018-08-09T01:58:17.068Z,5.20
2018-08-09T02:00:44.171Z,6.50
2018-08-09T02:03:11.268Z,8.30
2018-08-09T02:05:38.372Z,10.07
2018-08-09T02:08:05.489Z,7.03
2018-08-09T02:10:32.613Z,8.10
2018-08-09T02:12:59.724Z,4.43
2018-08-09T02:15:26.825Z,4.70
2018-08-09T02:17:53.932Z,5.13
2018-08-09T02:20:21.037Z,4.13
2018-08-09T02:22:48.160Z,4.53
2018-08-09T02:25:15.270Z,5.20
2018-08-09T02:27:42.369Z,5.93
2018-08-09T02:30:09.793Z,6.67
2018-08-09T02:32:36.900Z,6.77
2018-08-09T02:35:04.124Z,5.20
2018-08-09T02:37:31.345Z,6.80
2018-08-09T02:39:58.445Z,5.50
2018-08-09T02:42:25.564Z,4.53
2018-08-09T02:44:52.764Z,7.50
2018-08-09T02:47:19.877Z,3.93
2018-08-09T02:49:46.985Z,8.53
2018-08-09T02:52:14.181Z,4.20
2018-08-09T02:54:41.497Z,7.77
2018-08-09T02:57:08.746Z,5.20
2018-08-09T02:59:35.854Z,8.13
2018-08-09T03:02:02.945Z,9.17
2018-08-09T03:04:30.100Z,4.93
2018-08-09T03:06:57.219Z,6.33
2018-08-09T03:09:24.306Z,5.80
2018-08-09T03:11:51.394Z,8.70
2018-08-09T03:14:18.509Z,4.30
2018-08-09T03:16:45.685Z,5.13
2018-08-09T03:19:12.794Z,5.60
2018-08-09T03:21:39.901Z,6.50
2018-08-09T03:24:07.008Z,7.37
2018-08-09T03:26:34.211Z,5.20
2018-08-09T03:29:01.343Z,7.23
2018-08-09T03:31:28.459Z,4.70
2018-08-09T03:33:55.560Z,6.50
2018-08-09T03:36:22.668Z,6.60
2018-08-09T03:38:49.779Z,6.13
2018-08-09T03:41:16.885Z,5.90
2018-08-09T03:43:43.994Z,8.10
2018-08-09T03:46:11.106Z,6.17
2018-08-09T03:48:38.262Z,4.47
2018-08-09T03:51:05.374Z,11.80
2018-08-09T03:53:32.486Z,6.10
2018-08-09T03:55:59.589Z,5.97
2018-08-09T03:58:26.681Z,10.70
2018-08-09T04:00:53.797Z,6.60
2018-08-09T04:03:20.889Z,4.27
2018-08-09T04:05:47.997Z,7.90
2018-08-09T04:08:15.092Z,5.13
2018-08-09T04:10:42.213Z,5.50
2018-08-09T04:13:09.308Z,5.50
2018-08-09T04:15:36.416Z,4.10
2018-08-09T04:18:03.564Z,6.30
2018-08-09T04:20:30.673Z,7.50
2018-08-09T04:22:57.766Z,5.93
2018-08-09T04:25:24.878Z,9.93
2018-08-09T04:27:51.986Z,4.87
2018-08-09T04:30:19.093Z,4.80
2018-08-09T04:32:46.213Z,9.70
2018-08-09T04:35:13.312Z,5.40
2018-08-09T04:37:40.416Z,4.07
2018-08-09T04:40:07.541Z,4.80
2018-08-09T04:42:34.844Z,4.30
2018-08-09T04:45:01.949Z,4.30
2018-08-09T04:47:29.057Z,6.40
2018-08-09T04:49:56.193Z,6.17
2018-08-09T04:52:23.298Z,5.90
2018-08-09T04:54:50.404Z,8.73
2018-08-09T04:57:17.524Z,5.57
2018-08-09T04:59:44.632Z,7.97
2018-08-09T05:02:11.740Z,5.50
2018-08-09T05:04:38.848Z,3.87
2018-08-09T05:07:06.181Z,4.83
2018-08-09T05:09:33.276Z,5.87
2018-08-09T05:12:00.381Z,8.17
2018-08-09T05:14:27.552Z,7.27
2018-08-09T05:16:54.669Z,4.67
2018-08-09T05:19:21.775Z,7.73
2018-08-09T05:21:48.957Z,6.53
2018-08-09T05:24:16.049Z,12.87
2018-08-09T05:26:43.208Z,6.23
2018-08-09T05:29:10.325Z,5.57
2018-08-09T05:31:37.453Z,7.43
2018-08-09T05:34:04.655Z,9.33
2018-08-09T05:36:31.764Z,5.40
2018-08-09T05:38:58.870Z,6.90
2018-08-09T05:41:26.111Z,5.13
2018-08-09T05:43:53.394Z,5.40
2018-08-09T05:46:20.531Z,10.10
2018-08-09T05:48:47.777Z,5.77
2018-08-09T05:51:14.884Z,4.63
2018-08-09T05:53:41.996Z,7.07
2018-08-09T05:56:09.159Z,5.90
2018-08-09T05:58:36.333Z,7.67
2018-08-09T06:01:03.350Z,6.17
2018-08-09T06:03:30.509Z,6.43
2018-08-09T06:05:58.350Z,4.63
2018-08-09T06:08:28.303Z,8.90
2018-08-09T06:10:59.145Z,4.80
2018-08-09T06:13:26.678Z,4.43
2018-08-09T06:15:56.101Z,5.00
2018-08-09T06:18:23.315Z,7.80
2018-08-09T06:20:50.455Z,5.20
2018-08-09T06:23:17.701Z,6.27
2018-08-09T06:25:44.784Z,9.90
2018-08-09T06:28:11.957Z,7.07
2018-08-09T06:30:39.323Z,8.30
2018-08-09T06:33:06.465Z,5.13
2018-08-09T06:35:33.597Z,8.10
2018-08-09T06:38:00.694Z,4.50
2018-08-09T06:40:28.025Z,10.53
2018-08-09T06:42:55.188Z,5.00
2018-08-09T06:45:22.329Z,4.90
2018-08-09T06:47:49.432Z,9.07
2018-08-09T06:50:16.556Z,5.17
2018-08-09T06:52:44.101Z,10.97
2018-08-09T06:55:11.192Z,5.27
2018-08-09T06:57:38.294Z,8.60
2018-08-09T07:00:06.812Z,10.43
2018-08-09T07:02:34.028Z,6.83
2018-08-09T07:05:03.571Z,7.60
2018-08-09T07:07:32.582Z,11.80
2018-08-09T07:10:02.651Z,10.80
2018-08-09T07:12:30.217Z,9.43
2018-08-09T07:14:57.340Z,7.50
2018-08-09T07:17:24.440Z,10.10
2018-08-09T07:19:51.609Z,7.67
2018-08-09T07:22:18.704Z,11.30
2018-08-09T07:24:45.808Z,10.53
2018-08-09T07:27:12.922Z,11.03
2018-08-09T07:29:40.025Z,8.53
2018-08-09T07:32:07.136Z,7.90
2018-08-09T07:34:34.241Z,8.50
2018-08-09T07:37:01.349Z,10.20
2018-08-09T07:39:28.562Z,8.13
2018-08-09T07:41:55.662Z,8.47
2018-08-09T07:44:22.797Z,9.73
2018-08-09T07:46:49.876Z,8.90
2018-08-09T07:49:16.988Z,11.07
2018-08-09T07:51:44.174Z,11.20
2018-08-09T07:54:11.316Z,11.67
2018-08-09T07:56:38.388Z,10.13
2018-08-09T07:59:06.000Z,9.67
2018-08-09T08:01:33.479Z,9.67
2018-08-09T08:04:00.665Z,10.53
2018-08-09T08:06:27.783Z,10.03
2018-08-09T08:08:54.921Z,13.43
2018-08-09T08:11:22.029Z,17.53
2018-08-09T08:13:49.129Z,11.17
2018-08-09T08:16:18.249Z,11.50
2018-08-09T08:18:45.353Z,10.93
2018-08-09T08:21:12.461Z,13.40
2018-08-09T08:23:39.563Z,15.33
2018-08-09T08:26:06.668Z,13.07
2018-08-09T08:28:33.764Z,11.53
2018-08-09T08:31:00.908Z,11.30
2018-08-09T08:33:28.105Z,12.20
2018-08-09T08:35:55.216Z,11.40
2018-08-09T08:38:22.308Z,10.13
2018-08-09T08:40:49.406Z,11.90
2018-08-09T08:43:16.505Z,10.30
2018-08-09T08:45:43.604Z,14.90
2018-08-09T08:48:10.704Z,10.03
2018-08-09T08:50:37.797Z,11.77
2018-08-09T08:53:05.001Z,13.37
2018-08-09T08:55:32.061Z,11.30
2018-08-09T08:57:59.169Z,10.30
2018-08-09T09:00:26.278Z,10.63
2018-08-09T09:02:53.384Z,10.43
2018-08-09T09:05:20.516Z,14.60
2018-08-09T09:07:47.608Z,10.47
2018-08-09T09:10:14.728Z,10.33
2018-08-09T09:12:41.880Z,10.30
2018-08-09T09:15:11.232Z,9.97
2018-08-09T09:17:38.408Z,9.33
2018-08-09T09:20:07.244Z,16.23
2018-08-09T09:22:34.344Z,10.50
2018-08-09T09:25:01.454Z,10.77
2018-08-09T09:27:28.721Z,9.63
2018-08-09T09:29:55.804Z,14.67
2018-08-09T09:32:22.905Z,9.33
2018-08-09T09:34:50.004Z,9.00
2018-08-09T09:37:17.116Z,9.40
2018-08-09T09:39:44.233Z,13.30
2018-08-09T09:42:11.332Z,12.97
2018-08-09T09:44:38.438Z,11.57
2018-08-09T09:47:05.536Z,9.60
2018-08-09T09:49:32.662Z,8.63
2018-08-09T09:51:59.761Z,11.33
2018-08-09T09:54:27.547Z,12.20
2018-08-09T09:56:54.635Z,8.90
2018-08-09T09:59:21.808Z,9.00
2018-08-09T10:01:48.949Z,8.80
2018-08-09T10:04:16.314Z,9.70
2018-08-09T10:06:43.432Z,13.50
2018-08-09T10:09:11.988Z,11.57
2018-08-09T10:11:39.369Z,8.53
2018-08-09T10:14:06.628Z,9.77
2018-08-09T10:16:33.945Z,12.07
2018-08-09T10:19:03.117Z,11.50
2018-08-09T10:21:31.957Z,11.20
2018-08-09T10:24:02.123Z,8.63
2018-08-09T10:26:30.183Z,21.00
2018-08-09T10:28:58.632Z,13.20
2018-08-09T10:31:27.090Z,11.70
2018-08-09T10:33:57.190Z,14.70
2018-08-09T10:36:24.795Z,10.50
2018-08-09T10:38:53.622Z,10.60
2018-08-09T10:41:23.567Z,11.90
2018-08-09T10:43:51.024Z,10.90
2018-08-09T10:46:18.285Z,10.50
2018-08-09T10:48:49.895Z,11.33
2018-08-09T10:51:18.359Z,10.37
2018-08-09T10:53:48.363Z,13.30
2018-08-09T10:56:16.383Z,11.17
2018-08-09T10:58:51.240Z,12.23
2018-08-09T11:01:19.303Z,12.07
2018-08-09T11:03:50.602Z,14.40
2018-08-09T11:06:17.678Z,10.10
2018-08-09T11:08:45.997Z,8.37
2018-08-09T11:11:14.421Z,10.53
2018-08-09T11:13:43.178Z,8.60
2018-08-09T11:16:16.341Z,16.10
2018-08-09T11:18:47.640Z,15.13
2018-08-09T11:21:20.594Z,9.63
2018-08-09T11:23:47.724Z,10.67
2018-08-09T11:26:14.939Z,12.33
2018-08-09T11:28:44.973Z,11.10
2018-08-09T11:31:12.324Z,12.17
2018-08-09T11:33:39.405Z,9.47
2018-08-09T11:36:06.516Z,6.37
2018-08-09T11:38:33.612Z,8.80
2018-08-09T11:41:00.705Z,8.40
2018-08-09T11:43:27.824Z,8.50
2018-08-09T11:45:55.013Z,14.50
2018-08-09T11:48:22.108Z,11.07
2018-08-09T11:50:49.201Z,12.60
2018-08-09T11:53:16.293Z,8.43
2018-08-09T11:55:43.401Z,11.53
2018-08-09T11:58:10.488Z,10.60
2018-08-09T12:00:37.589Z,10.33
2018-08-09T12:03:04.721Z,14.40
2018-08-09T12:05:31.834Z,8.30
2018-08-09T12:07:58.965Z,12.23
2018-08-09T12:10:26.109Z,11.23
2018-08-09T12:12:53.204Z,13.77
2018-08-09T12:15:20.367Z,11.00
2018-08-09T12:17:47.433Z,13.50
2018-08-09T12:20:14.853Z,12.30
2018-08-09T12:22:42.392Z,14.13
2018-08-09T12:25:09.504Z,9.43
2018-08-09T12:27:36.593Z,15.73
2018-08-09T12:30:04.902Z,8.73
2018-08-09T12:32:32.021Z,11.07
2018-08-09T12:34:59.132Z,9.80
2018-08-09T12:37:26.383Z,10.80
2018-08-09T12:39:53.815Z,12.83
2018-08-09T12:42:20.928Z,13.03
2018-08-09T12:44:48.053Z,31.13
2018-08-09T12:47:15.158Z,35.70
2018-08-09T12:49:42.253Z,25.20
2018-08-09T12:52:09.362Z,24.23
2018-08-09T12:54:36.453Z,19.43
2018-08-09T12:57:03.573Z,14.93
2018-08-09T12:59:30.700Z,14.17
2018-08-09T13:01:57.797Z,14.90
2018-08-09T13:04:25.268Z,10.70
2018-08-09T13:06:52.480Z,8.67
2018-08-09T13:09:19.601Z,8.77
2018-08-09T13:11:49.171Z,9.30
2018-08-09T13:14:16.260Z,11.30
2018-08-09T13:16:43.400Z,9.07
2018-08-09T13:19:10.565Z,15.97
2018-08-09T13:21:37.741Z,13.83
2018-08-09T13:24:04.845Z,11.20
2018-08-09T13:26:32.021Z,13.13
2018-08-09T13:28:59.224Z,21.93
2018-08-09T13:31:26.377Z,10.57
2018-08-09T13:33:53.548Z,11.30
2018-08-09T13:36:20.653Z,8.30
2018-08-09T13:38:47.792Z,10.63
2018-08-09T13:41:14.933Z,10.60
2018-08-09T13:43:42.061Z,10.93
2018-08-09T13:46:09.164Z,9.53
2018-08-09T13:48:36.277Z,8.30
2018-08-09T13:51:03.630Z,10.33
2018-08-09T13:53:30.726Z,9.10
2018-08-09T13:55:57.840Z,12.70
2018-08-09T13:58:24.988Z,10.60
2018-08-09T14:00:52.029Z,9.87
2018-08-09T14:03:19.125Z,8.80
2018-08-09T14:05:46.232Z,11.87
2018-08-09T14:08:13.337Z,7.87
2018-08-09T14:10:40.710Z,10.63
2018-08-09T14:13:07.821Z,12.43
2018-08-09T14:15:34.934Z,7.67
2018-08-09T14:18:02.052Z,10.43
2018-08-09T14:20:29.202Z,8.07
2018-08-09T14:22:56.277Z,11.23
2018-08-09T14:25:23.452Z,9.10
2018-08-09T14:27:50.600Z,6.43
2018-08-09T14:30:17.696Z,9.00
2018-08-09T14:32:45.285Z,8.83
2018-08-09T14:35:13.784Z,11.60
2018-08-09T14:37:41.472Z,7.57
2018-08-09T14:40:09.245Z,13.73
2018-08-09T14:42:36.570Z,8.23
2018-08-09T14:45:06.734Z,10.33
2018-08-09T14:47:34.020Z,9.30
2018-08-09T14:50:01.268Z,7.40
2018-08-09T14:52:28.668Z,6.10
2018-08-09T14:54:55.798Z,8.83
2018-08-09T14:57:25.762Z,10.80
2018-08-09T14:59:53.148Z,6.30
2018-08-09T15:02:20.308Z,7.03
2018-08-09T15:04:47.484Z,7.27
2018-08-09T15:07:14.617Z,7.80
2018-08-09T15:09:42.149Z,7.93
2018-08-09T15:12:09.233Z,7.20
2018-08-09T15:14:36.320Z,6.47
2018-08-09T15:17:03.425Z,7.00
2018-08-09T15:19:30.525Z,6.40
2018-08-09T15:21:57.625Z,5.30
2018-08-09T15:24:24.823Z,6.80
2018-08-09T15:26:51.880Z,10.97
2018-08-09T15:29:18.976Z,6.67
2018-08-09T15:31:46.077Z,6.17
2018-08-09T15:34:13.189Z,8.27
2018-08-09T15:36:40.300Z,5.53
2018-08-09T15:39:09.017Z,6.63
2018-08-09T15:41:36.126Z,6.30
2018-08-09T15:44:03.237Z,8.70
2018-08-09T15:46:30.345Z,6.90
2018-08-09T15:48:57.444Z,7.70
2018-08-09T15:51:24.533Z,7.27
2018-08-09T15:53:51.633Z,6.80
2018-08-09T15:56:18.736Z,7.20
2018-08-09T15:58:45.856Z,5.63
2018-08-09T16:01:12.996Z,8.00
2018-08-09T16:03:40.309Z,8.20
2018-08-09T16:06:07.421Z,7.60
2018-08-09T16:08:34.544Z,9.87
2018-08-09T16:11:01.633Z,7.57
2018-08-09T16:13:28.992Z,6.83
2018-08-09T16:15:56.102Z,6.00
2018-08-09T16:18:23.208Z,6.53
2018-08-09T16:20:50.297Z,9.90
2018-08-09T16:23:17.406Z,9.17
2018-08-09T16:25:45.150Z,6.27
2018-08-09T16:28:12.470Z,7.70
2018-08-09T16:30:39.552Z,7.30
2018-08-09T16:33:06.653Z,6.47
2018-08-09T16:35:33.764Z,10.17
2018-08-09T16:38:00.896Z,7.90
2018-08-09T16:40:28.291Z,6.03
2018-08-09T16:42:55.401Z,7.13
2018-08-09T16:45:23.440Z,5.70
2018-08-09T16:47:51.001Z,7.40
2018-08-09T16:50:19.515Z,5.60
2018-08-09T16:52:47.497Z,6.20
2018-08-09T16:55:15.157Z,8.13
2018-08-09T16:57:42.544Z,5.30
2018-08-09T17:00:11.640Z,5.80
2018-08-09T17:02:39.424Z,4.63
2018-08-09T17:05:08.624Z,6.73
2018-08-09T17:07:35.881Z,5.73
2018-08-09T17:10:03.032Z,8.13
2018-08-09T17:12:30.193Z,5.77
2018-08-09T17:14:57.341Z,6.07
2018-08-09T17:17:24.508Z,5.13
2018-08-09T17:19:51.621Z,5.10
2018-08-09T17:22:19.136Z,4.37
2018-08-09T17:24:46.345Z,9.47
2018-08-09T17:27:13.524Z,9.17
2018-08-09T17:29:40.708Z,4.80
2018-08-09T17:32:07.768Z,5.00
2018-08-09T17:34:34.885Z,4.20
2018-08-09T17:37:02.013Z,4.43
2018-08-09T17:39:29.124Z,6.07
2018-08-09T17:41:56.241Z,8.70
2018-08-09T17:44:23.377Z,5.53
2018-08-09T17:46:50.616Z,5.73
2018-08-09T17:49:17.744Z,5.27
2018-08-09T17:51:44.941Z,5.77
2018-08-09T17:54:12.203Z,4.17
2018-08-09T17:56:39.336Z,4.10
2018-08-09T17:59:06.439Z,5.20
2018-08-09T18:01:33.535Z,3.60
2018-08-09T18:04:01.556Z,4.80
2018-08-09T18:06:28.649Z,3.50
2018-08-09T18:08:55.760Z,3.57
2018-08-09T18:11:22.869Z,4.13
2018-08-09T18:13:50.032Z,2.40
2018-08-09T18:16:17.132Z,5.93
2018-08-09T18:18:44.310Z,4.23
2018-08-09T18:21:11.764Z,2.30
2018-08-09T18:23:38.942Z,3.57
2018-08-09T18:26:06.104Z,1.90
2018-08-09T18:28:33.304Z,2.13
2018-08-09T18:31:00.439Z,3.53
2018-08-09T18:33:27.545Z,2.10
2018-08-09T18:35:54.780Z,2.80
2018-08-09T18:38:21.912Z,4.30
2018-08-09T18:40:49.048Z,1.90
2018-08-09T18:43:16.168Z,1.90
2018-08-09T18:45:43.357Z,2.00
2018-08-09T18:48:10.464Z,2.10
2018-08-09T18:50:37.620Z,1.80
2018-08-09T18:53:04.857Z,1.87
2018-08-09T18:55:31.991Z,5.20
2018-08-09T18:57:59.109Z,1.50
2018-08-09T19:00:27.651Z,1.47
2018-08-09T19:02:55.062Z,1.53
2018-08-09T19:05:22.288Z,1.60
2018-08-09T19:07:49.393Z,1.83
2018-08-09T19:10:19.973Z,1.87
2018-08-09T19:12:47.107Z,2.00
2018-08-09T19:15:14.276Z,2.00
2018-08-09T19:17:41.629Z,2.40
2018-08-09T19:20:11.676Z,2.00
2018-08-09T19:22:39.512Z,1.90
2018-08-09T19:25:14.186Z,3.13
2018-08-09T19:27:41.462Z,1.97
2018-08-09T19:30:09.369Z,1.77
2018-08-09T19:32:36.659Z,1.97
2018-08-09T19:35:04.826Z,3.27
2018-08-09T19:37:31.963Z,5.20
2018-08-09T19:39:59.076Z,2.03
2018-08-09T19:42:26.281Z,1.90
2018-08-09T19:44:53.622Z,2.07
2018-08-09T19:47:20.967Z,1.70
2018-08-09T19:49:48.233Z,2.10
2018-08-09T19:52:15.302Z,2.30
2018-08-09T19:54:43.697Z,2.60
2018-08-09T19:57:10.817Z,1.90
2018-08-09T19:59:37.953Z,2.00
2018-08-09T20:02:05.344Z,2.50
2018-08-09T20:04:32.469Z,2.00
2018-08-09T20:07:00.000Z,2.10
2018-08-09T20:09:29.796Z,1.87
2018-08-09T20:11:59.080Z,4.37
2018-08-09T20:14:26.156Z,2.00
2018-08-09T20:16:53.290Z,2.20
2018-08-09T20:19:20.458Z,2.33
2018-08-09T20:21:47.581Z,2.20
2018-08-09T20:24:14.859Z,2.03
2018-08-09T20:26:41.953Z,2.17
2018-08-09T20:29:09.085Z,2.93
2018-08-09T20:31:36.172Z,2.00
2018-08-09T20:34:05.011Z,2.00
2018-08-09T20:36:34.284Z,2.20
2018-08-09T20:39:01.399Z,2.30
2018-08-09T20:41:28.515Z,1.93
2018-08-09T20:43:55.820Z,2.40
2018-08-09T20:46:22.925Z,2.37
2018-08-09T20:48:50.107Z,2.00
2018-08-09T20:51:17.299Z,2.70
2018-08-09T20:53:44.456Z,5.07
2018-08-09T20:56:11.541Z,2.23
2018-08-09T20:58:38.668Z,2.23
2018-08-09T21:01:05.869Z,2.30
2018-08-09T21:03:33.145Z,2.00
2018-08-09T21:06:00.243Z,1.60
2018-08-09T21:08:27.575Z,3.27
2018-08-09T21:10:54.617Z,2.40
2018-08-09T21:13:21.860Z,1.73
2018-08-09T21:15:55.935Z,1.97
2018-08-09T21:18:23.802Z,1.90
2018-08-09T21:20:50.909Z,3.67
2018-08-09T21:23:18.110Z,3.23
2018-08-09T21:25:45.158Z,1.70
2018-08-09T21:28:12.295Z,1.27
2018-08-09T21:30:39.389Z,1.93
2018-08-09T21:33:06.501Z,2.93
2018-08-09T21:35:33.599Z,1.87
2018-08-09T21:38:00.689Z,1.40
2018-08-09T21:40:28.077Z,1.10
2018-08-09T21:42:55.236Z,1.20
2018-08-09T21:45:22.337Z,1.13
2018-08-09T21:47:49.480Z,1.67
2018-08-09T21:50:18.024Z,1.47
2018-08-09T21:52:45.134Z,1.10
2018-08-09T21:55:12.893Z,4.93
2018-08-09T21:57:40.319Z,1.00
2018-08-09T22:00:08.930Z,0.80
2018-08-09T22:02:36.048Z,0.80
2018-08-09T22:05:08.785Z,0.80
2018-08-09T22:07:41.625Z,0.90
2018-08-09T22:10:14.068Z,2.20
2018-08-09T22:12:46.675Z,1.23
2018-08-09T22:15:19.220Z,1.80
2018-08-09T22:17:51.728Z,1.10
2018-08-09T22:22:29.704Z,0.90
2018-08-09T22:24:57.123Z,0.90
2018-08-09T22:27:24.257Z,1.73
2018-08-09T22:29:51.368Z,1.00
2018-08-09T22:32:18.465Z,1.20
2018-08-09T22:34:45.880Z,1.10
2018-08-09T22:37:12.986Z,1.43
2018-08-09T22:39:40.219Z,1.50
2018-08-09T22:42:07.326Z,1.93
2018-08-09T22:44:34.489Z,1.10
2018-08-09T22:47:01.608Z,2.13
2018-08-09T22:49:28.762Z,1.20
2018-08-09T22:51:55.862Z,1.07
2018-08-09T22:54:22.968Z,1.70
2018-08-09T22:56:50.352Z,1.80
2018-08-09T22:59:18.104Z,1.80
2018-08-09T23:01:45.201Z,1.10
2018-08-09T23:04:12.297Z,4.30
2018-08-09T23:06:39.416Z,2.97
2018-08-09T23:09:07.504Z,1.90
2018-08-09T23:11:34.592Z,1.10
2018-08-09T23:14:01.776Z,1.93
2018-08-09T23:16:28.868Z,1.00
2018-08-09T23:18:55.969Z,1.43
2018-08-09T23:21:23.060Z,1.27
2018-08-09T23:23:50.181Z,5.37
2018-08-09T23:26:17.320Z,1.20
2018-08-09T23:28:44.472Z,1.00
2018-08-09T23:31:11.548Z,1.40
2018-08-09T23:33:38.649Z,1.87
2018-08-09T23:36:05.741Z,1.27
2018-08-09T23:38:32.845Z,1.60
2018-08-09T23:40:59.948Z,4.43
2018-08-09T23:43:27.028Z,1.40
2018-08-09T23:45:54.128Z,1.30
2018-08-09T23:48:21.214Z,1.50
2018-08-09T23:50:48.316Z,1.30
2018-08-09T23:53:15.408Z,1.33
2018-08-09T23:55:42.496Z,2.40
2018-08-09T23:58:09.594Z,3.07
